createdAt,value
2022-10-18T00:00:15.086Z,10.35
2022-10-18T00:02:41.598Z,10.18
2022-10-18T00:05:08.528Z,9.70
2022-10-18T00:07:35.018Z,10.37
2022-10-18T00:10:01.588Z,10.93
2022-10-18T00:12:28.090Z,10.68
2022-10-18T00:14:54.603Z,11.32
2022-10-18T00:17:21.126Z,11.45
2022-10-18T00:19:48.260Z,10.17
2022-10-18T00:22:14.700Z,10.40
2022-10-18T00:24:41.144Z,9.70
2022-10-18T00:27:07.629Z,10.73
2022-10-18T00:29:34.108Z,9.63
2022-10-18T00:32:00.603Z,9.00
2022-10-18T00:34:27.116Z,9.95
2022-10-18T00:36:55.164Z,10.32
2022-10-18T00:39:22.222Z,10.40
2022-10-18T00:41:49.732Z,9.63
2022-10-18T00:44:16.137Z,9.73
2022-10-18T00:46:45.424Z,9.80
2022-10-18T00:49:19.086Z,10.18
2022-10-18T00:52:08.506Z,10.60
2022-10-18T00:54:39.157Z,10.88
2022-10-18T00:57:06.931Z,12.43
2022-10-18T00:59:34.506Z,12.00
2022-10-18T01:02:01.529Z,12.85
2022-10-18T01:04:28.502Z,13.45
2022-10-18T01:07:08.362Z,13.52
2022-10-18T01:09:58.982Z,13.47
2022-10-18T01:12:28.081Z,13.02
2022-10-18T01:15:11.288Z,12.88
2022-10-18T01:17:55.201Z,12.13
2022-10-18T01:20:36.649Z,12.88
2022-10-18T01:23:13.563Z,11.93
2022-10-18T01:26:15.641Z,12.38
2022-10-18T01:29:12.590Z,11.23
2022-10-18T01:31:56.451Z,11.57
2022-10-18T01:34:27.997Z,11.85
2022-10-18T01:36:57.019Z,11.17
2022-10-18T01:39:28.837Z,10.75
2022-10-18T01:41:58.449Z,11.13
2022-10-18T01:44:27.108Z,10.05
2022-10-18T01:46:56.139Z,10.30
2022-10-18T01:49:23.982Z,10.23
2022-10-18T01:51:50.439Z,10.55
2022-10-18T01:54:27.388Z,10.40
2022-10-18T01:56:58.510Z,10.60
2022-10-18T01:59:38.139Z,9.75
2022-10-18T02:02:19.117Z,9.40
2022-10-18T02:04:54.530Z,9.95
2022-10-18T02:07:42.584Z,10.40
2022-10-18T02:10:37.075Z,9.48
2022-10-18T02:13:04.375Z,10.07
2022-10-18T02:15:35.328Z,9.50
2022-10-18T02:18:08.537Z,10.27
2022-10-18T02:20:38.067Z,9.63
2022-10-18T02:23:08.175Z,9.30
2022-10-18T02:25:35.568Z,10.10
2022-10-18T02:28:03.514Z,9.23
2022-10-18T02:30:59.616Z,10.25
2022-10-18T02:33:47.689Z,10.85
2022-10-18T02:36:22.315Z,10.63
2022-10-18T02:38:55.032Z,11.75
2022-10-18T02:41:27.118Z,10.50
2022-10-18T02:43:54.439Z,11.07
2022-10-18T02:46:21.120Z,11.50
2022-10-18T02:48:47.751Z,10.57
2022-10-18T02:51:14.308Z,9.65
2022-10-18T02:53:40.815Z,9.60
2022-10-18T02:56:07.651Z,8.88
2022-10-18T02:58:34.141Z,8.02
2022-10-18T03:01:00.668Z,8.60
2022-10-18T03:03:27.161Z,8.85
2022-10-18T03:05:53.705Z,7.53
2022-10-18T03:08:20.260Z,8.05
2022-10-18T03:10:46.914Z,8.30
2022-10-18T03:13:13.571Z,9.55
2022-10-18T03:15:40.174Z,10.60
2022-10-18T03:18:07.107Z,10.83
2022-10-18T03:20:34.282Z,9.88
2022-10-18T03:23:00.758Z,9.13
2022-10-18T03:25:27.243Z,8.88
2022-10-18T03:27:53.722Z,10.02
2022-10-18T03:30:20.214Z,9.60
2022-10-18T03:32:46.679Z,9.40
2022-10-18T03:35:13.130Z,9.57
2022-10-18T03:37:39.609Z,8.95
2022-10-18T03:40:06.851Z,9.65
2022-10-18T03:42:33.480Z,11.97
2022-10-18T03:45:00.123Z,11.68
2022-10-18T03:47:26.597Z,11.68
2022-10-18T03:49:56.217Z,12.38
2022-10-18T03:52:23.922Z,12.43
2022-10-18T03:54:50.530Z,12.20
2022-10-18T03:57:17.015Z,13.07
2022-10-18T03:59:43.512Z,13.23
2022-10-18T04:02:09.980Z,13.15
2022-10-18T04:04:36.568Z,13.88
2022-10-18T04:07:03.051Z,14.03
2022-10-18T04:09:29.491Z,15.48
2022-10-18T04:11:55.937Z,23.67
2022-10-18T04:14:22.529Z,12.57
2022-10-18T04:16:49.002Z,14.25
2022-10-18T04:19:15.709Z,12.70
2022-10-18T04:21:42.250Z,13.18
2022-10-18T04:24:08.708Z,12.77
2022-10-18T04:26:35.212Z,22.77
2022-10-18T04:29:01.821Z,11.77
2022-10-18T04:31:28.374Z,9.87
2022-10-18T04:33:55.025Z,10.68
2022-10-18T04:36:21.543Z,10.13
2022-10-18T04:38:47.983Z,12.65
2022-10-18T04:41:14.421Z,12.05
2022-10-18T04:43:40.991Z,11.07
2022-10-18T04:46:07.456Z,11.25
2022-10-18T04:48:34.106Z,8.63
2022-10-18T04:51:00.655Z,8.15
2022-10-18T04:53:27.165Z,7.05
2022-10-18T04:55:53.735Z,10.47
2022-10-18T04:58:20.271Z,7.45
2022-10-18T05:00:47.798Z,4.50
2022-10-18T05:03:14.879Z,5.80
2022-10-18T05:06:00.751Z,6.57
2022-10-18T05:08:28.883Z,5.70
2022-10-18T05:10:55.433Z,7.35
2022-10-18T05:13:21.909Z,12.20
2022-10-18T05:15:48.385Z,12.90
2022-10-18T05:18:14.941Z,7.43
2022-10-18T05:20:41.418Z,17.90
2022-10-18T05:23:10.804Z,4.60
2022-10-18T05:25:41.788Z,4.82
2022-10-18T05:28:15.588Z,4.20
2022-10-18T05:30:53.941Z,5.43
2022-10-18T05:33:20.405Z,4.00
2022-10-18T05:35:46.858Z,4.72
2022-10-18T05:38:13.313Z,4.72
2022-10-18T05:40:39.765Z,8.45
2022-10-18T05:43:06.225Z,5.03
2022-10-18T05:45:32.709Z,4.57
2022-10-18T05:47:59.146Z,3.70
2022-10-18T05:50:25.612Z,3.00
2022-10-18T05:53:02.690Z,3.85
2022-10-18T05:55:38.844Z,4.53
2022-10-18T05:58:05.418Z,3.67
2022-10-18T06:00:31.919Z,3.55
2022-10-18T06:03:00.336Z,3.60
2022-10-18T06:05:27.154Z,2.53
2022-10-18T06:07:53.706Z,3.50
2022-10-18T06:10:20.170Z,3.40
2022-10-18T06:12:46.604Z,2.95
2022-10-18T06:15:13.072Z,4.57
2022-10-18T06:17:39.600Z,5.28
2022-10-18T06:20:07.538Z,3.50
2022-10-18T06:22:34.163Z,3.80
2022-10-18T06:25:00.661Z,7.25
2022-10-18T06:27:27.226Z,3.75
2022-10-18T06:29:53.755Z,3.85
2022-10-18T06:32:20.199Z,5.40
2022-10-18T06:34:46.678Z,4.37
2022-10-18T06:37:13.130Z,4.25
2022-10-18T06:39:39.577Z,4.97
2022-10-18T06:42:06.049Z,4.80
2022-10-18T06:44:32.511Z,3.95
2022-10-18T06:46:59.115Z,3.90
2022-10-18T06:49:25.683Z,4.15
2022-10-18T06:51:53.680Z,3.55
2022-10-18T06:54:20.240Z,3.25
2022-10-18T06:56:46.753Z,3.75
2022-10-18T06:59:13.660Z,4.40
2022-10-18T07:01:40.199Z,4.28
2022-10-18T07:04:06.850Z,4.38
2022-10-18T07:06:33.380Z,4.40
2022-10-18T07:09:00.226Z,4.32
2022-10-18T07:11:27.320Z,4.53
2022-10-18T07:13:55.476Z,5.72
2022-10-18T07:16:22.150Z,5.85
2022-10-18T07:18:50.629Z,5.43
2022-10-18T07:21:20.023Z,5.40
2022-10-18T07:23:47.196Z,5.27
2022-10-18T07:26:29.310Z,5.63
2022-10-18T07:28:59.124Z,5.47
2022-10-18T07:31:26.575Z,5.72
2022-10-18T07:33:53.326Z,5.57
2022-10-18T07:36:22.100Z,4.83
2022-10-18T07:38:49.300Z,4.97
2022-10-18T07:41:15.813Z,5.47
2022-10-18T07:43:45.713Z,5.10
2022-10-18T07:46:15.793Z,5.68
2022-10-18T07:48:42.525Z,5.80
2022-10-18T07:51:09.926Z,6.28
2022-10-18T07:53:36.809Z,6.07
2022-10-18T07:56:11.503Z,7.10
2022-10-18T07:58:37.991Z,7.70
2022-10-18T08:01:06.566Z,8.50
2022-10-18T08:03:34.134Z,8.23
2022-10-18T08:06:00.771Z,8.95
2022-10-18T08:08:28.270Z,8.30
2022-10-18T08:10:55.190Z,9.40
2022-10-18T08:13:21.633Z,9.07
2022-10-18T08:15:48.442Z,10.77
2022-10-18T08:18:15.135Z,10.18
2022-10-18T08:20:45.588Z,10.57
2022-10-18T08:23:12.503Z,10.65
2022-10-18T08:25:39.082Z,11.70
2022-10-18T08:28:06.555Z,11.55
2022-10-18T08:30:35.283Z,11.27
2022-10-18T08:33:02.679Z,12.65
2022-10-18T08:35:29.159Z,14.02
2022-10-18T08:37:55.674Z,14.23
2022-10-18T08:40:22.228Z,13.88
2022-10-18T08:43:30.224Z,13.07
2022-10-18T08:45:57.221Z,11.73
2022-10-18T08:48:34.208Z,10.75
2022-10-18T08:51:02.971Z,11.03
2022-10-18T08:53:59.227Z,11.68
2022-10-18T08:56:25.886Z,10.52
2022-10-18T08:58:52.353Z,8.77
2022-10-18T09:01:40.680Z,8.38
2022-10-18T09:04:27.203Z,7.07
2022-10-18T09:07:09.016Z,5.90
2022-10-18T09:10:01.093Z,5.30
2022-10-18T09:12:49.466Z,4.60
2022-10-18T09:15:31.581Z,5.20
2022-10-18T09:18:17.118Z,4.77
2022-10-18T09:20:46.493Z,4.57
2022-10-18T09:23:25.594Z,3.07
2022-10-18T09:25:58.383Z,3.42
2022-10-18T09:28:39.873Z,2.92
2022-10-18T09:31:21.261Z,2.67
2022-10-18T09:34:02.814Z,3.25
2022-10-18T09:36:37.096Z,2.43
2022-10-18T09:39:16.659Z,2.20
2022-10-18T09:41:58.726Z,2.03
2022-10-18T09:44:31.776Z,2.45
2022-10-18T09:47:02.984Z,2.25
2022-10-18T09:49:39.279Z,2.10
2022-10-18T09:52:09.183Z,1.70
2022-10-18T09:54:47.249Z,2.67
2022-10-18T09:57:23.044Z,2.03
2022-10-18T09:59:50.978Z,1.98
2022-10-18T10:02:22.606Z,1.70
2022-10-18T10:04:50.114Z,2.30
2022-10-18T10:07:19.662Z,1.77
2022-10-18T10:09:49.120Z,2.10
2022-10-18T10:12:29.466Z,1.85
2022-10-18T10:15:10.502Z,1.80
2022-10-18T10:17:37.701Z,2.25
2022-10-18T10:20:28.882Z,2.05
2022-10-18T10:23:06.438Z,2.65
2022-10-18T10:25:36.100Z,2.75
2022-10-18T10:28:16.856Z,1.60
2022-10-18T10:30:43.562Z,2.22
2022-10-18T10:33:37.733Z,1.60
2022-10-18T10:36:15.677Z,2.10
2022-10-18T10:38:42.188Z,1.85
2022-10-18T10:41:21.061Z,1.83
2022-10-18T10:43:49.116Z,2.22
2022-10-18T10:46:19.126Z,2.63
2022-10-18T10:48:47.826Z,1.67
2022-10-18T10:51:16.922Z,1.60
2022-10-18T10:53:51.248Z,2.20
2022-10-18T10:56:29.596Z,1.65
2022-10-18T10:59:01.197Z,2.55
2022-10-18T11:01:31.679Z,1.70
2022-10-18T11:04:01.002Z,2.20
2022-10-18T11:06:46.250Z,1.70
2022-10-18T11:09:25.852Z,2.08
2022-10-18T11:12:01.635Z,1.73
2022-10-18T11:14:34.934Z,2.00
2022-10-18T11:17:40.669Z,2.05
2022-10-18T11:20:07.093Z,2.17
2022-10-18T11:22:40.729Z,1.80
2022-10-18T11:25:13.283Z,1.90
2022-10-18T11:27:49.954Z,1.70
2022-10-18T11:30:33.285Z,1.85
2022-10-18T11:33:18.021Z,1.77
2022-10-18T11:35:52.429Z,1.90
2022-10-18T11:38:30.019Z,1.58
2022-10-18T11:41:11.525Z,1.88
2022-10-18T11:44:01.663Z,1.67
2022-10-18T11:46:28.952Z,1.27
2022-10-18T11:49:11.852Z,1.38
2022-10-18T11:52:03.073Z,1.50
2022-10-18T11:54:35.143Z,1.95
2022-10-18T11:57:38.498Z,2.30
2022-10-18T12:00:13.947Z,2.37
2022-10-18T12:03:11.086Z,1.92
2022-10-18T12:05:39.762Z,1.92
2022-10-18T12:08:11.528Z,1.95
2022-10-18T12:10:52.816Z,2.22
2022-10-18T12:13:46.591Z,1.60
2022-10-18T12:16:13.946Z,1.30
2022-10-18T12:21:25.759Z,1.45
2022-10-18T12:24:01.367Z,1.45
2022-10-18T12:26:29.744Z,1.57
2022-10-18T12:29:08.772Z,1.55
2022-10-18T12:32:03.099Z,1.50
2022-10-18T12:34:44.007Z,1.77
2022-10-18T12:38:08.910Z,1.70
2022-10-18T12:40:41.434Z,1.40
2022-10-18T12:43:18.918Z,2.15
2022-10-18T12:45:55.349Z,1.80
2022-10-18T12:48:27.730Z,1.73
2022-10-18T12:51:12.665Z,1.98
2022-10-18T12:53:42.195Z,2.70
2022-10-18T12:56:34.352Z,1.73
2022-10-18T12:59:16.016Z,1.88
2022-10-18T13:01:51.529Z,1.60
2022-10-18T13:04:33.792Z,1.88
2022-10-18T13:07:08.006Z,1.37
2022-10-18T13:09:40.309Z,1.42
2022-10-18T13:12:09.934Z,2.58
2022-10-18T13:15:25.844Z,1.92
2022-10-18T13:18:03.868Z,1.80
2022-10-18T13:21:02.946Z,1.63
2022-10-18T13:23:42.526Z,1.50
2022-10-18T13:26:21.450Z,1.85
2022-10-18T13:29:09.032Z,1.95
2022-10-18T13:31:47.647Z,1.80
2022-10-18T13:34:25.191Z,1.57
2022-10-18T13:36:59.473Z,1.60
2022-10-18T13:39:26.927Z,1.17
2022-10-18T13:41:57.754Z,1.55
2022-10-18T13:44:39.845Z,1.30
2022-10-18T13:47:07.065Z,2.13
2022-10-18T13:49:39.489Z,1.42
2022-10-18T13:52:40.101Z,1.38
2022-10-18T13:55:21.381Z,1.70
2022-10-18T13:58:15.926Z,1.52
2022-10-18T14:01:19.807Z,1.30
2022-10-18T14:04:01.248Z,1.48
2022-10-18T14:06:34.622Z,1.67
2022-10-18T14:09:26.400Z,1.27
2022-10-18T14:12:21.651Z,1.30
2022-10-18T14:15:07.439Z,2.67
2022-10-18T14:17:44.896Z,1.42
2022-10-18T14:20:40.059Z,1.40
2022-10-18T14:23:26.052Z,1.60
2022-10-18T14:26:05.682Z,1.27
2022-10-18T14:28:55.102Z,0.90
2022-10-18T14:31:20.137Z,1.25
2022-10-18T14:33:57.226Z,1.60
2022-10-18T14:36:27.383Z,1.40
2022-10-18T14:38:57.170Z,1.15
2022-10-18T14:41:28.131Z,1.20
2022-10-18T14:44:14.756Z,1.45
2022-10-18T14:46:47.023Z,1.15
2022-10-18T14:49:14.880Z,1.80
2022-10-18T14:51:46.398Z,1.48
2022-10-18T14:54:21.022Z,1.10
2022-10-18T14:56:48.476Z,1.80
2022-10-18T14:59:28.162Z,1.45
2022-10-18T15:01:58.594Z,1.40
2022-10-18T15:04:32.759Z,1.42
2022-10-18T15:07:05.402Z,1.60
2022-10-18T15:09:34.845Z,1.25
2022-10-18T15:12:05.583Z,1.65
2022-10-18T15:14:32.915Z,1.95
2022-10-18T15:17:04.521Z,1.20
2022-10-18T15:19:42.889Z,1.70
2022-10-18T15:25:14.864Z,1.48
2022-10-18T15:27:45.510Z,1.60
2022-10-18T15:30:39.457Z,1.50
2022-10-18T15:33:12.711Z,1.40
2022-10-18T15:35:39.556Z,1.38
2022-10-18T15:38:21.317Z,1.65
2022-10-18T15:40:48.588Z,1.40
2022-10-18T15:43:24.182Z,1.27
2022-10-18T15:46:03.228Z,1.23
2022-10-18T15:48:36.094Z,0.98
2022-10-18T15:51:08.289Z,1.17
2022-10-18T15:53:41.882Z,1.23
2022-10-18T15:56:34.281Z,1.10
2022-10-18T15:59:04.383Z,1.23
2022-10-18T16:01:38.361Z,1.00
2022-10-18T16:04:09.075Z,1.20
2022-10-18T16:06:38.558Z,1.55
2022-10-18T16:09:05.755Z,1.58
2022-10-18T16:11:32.371Z,1.10
2022-10-18T16:14:00.430Z,1.30
2022-10-18T16:16:29.348Z,1.48
2022-10-18T16:19:06.209Z,1.20
2022-10-18T16:21:36.527Z,1.10
2022-10-18T16:24:03.757Z,1.30
2022-10-18T16:26:30.487Z,1.25
2022-10-18T16:28:58.965Z,1.42
2022-10-18T16:31:28.308Z,0.80
2022-10-18T16:33:56.052Z,1.30
2022-10-18T16:36:29.068Z,0.90
2022-10-18T16:38:56.637Z,1.15
2022-10-18T16:41:23.373Z,1.48
2022-10-18T16:43:51.240Z,1.10
2022-10-18T16:46:21.078Z,1.20
2022-10-18T16:48:49.714Z,1.67
2022-10-18T16:51:16.846Z,1.25
2022-10-18T16:53:43.889Z,1.38
2022-10-18T16:56:17.643Z,1.20
2022-10-18T16:58:45.213Z,1.73
2022-10-18T17:01:16.938Z,1.30
2022-10-18T17:03:44.033Z,1.30
2022-10-18T17:06:22.366Z,1.30
2022-10-18T17:08:50.027Z,1.58
2022-10-18T17:11:17.911Z,1.85
2022-10-18T17:13:45.445Z,1.50
2022-10-18T17:19:01.648Z,1.70
2022-10-18T17:21:29.140Z,2.45
2022-10-18T17:24:00.660Z,1.30
2022-10-18T17:26:29.702Z,1.77
2022-10-18T17:29:00.232Z,1.70
2022-10-18T17:31:30.454Z,2.30
2022-10-18T17:33:58.706Z,2.03
2022-10-18T17:36:25.779Z,2.03
2022-10-18T17:38:55.739Z,2.20
2022-10-18T17:41:22.861Z,1.67
2022-10-18T17:43:50.030Z,1.90
2022-10-18T17:46:17.948Z,2.37
2022-10-18T17:48:44.996Z,1.90
2022-10-18T17:51:14.311Z,2.08
2022-10-18T17:53:40.871Z,1.83
2022-10-18T17:56:07.909Z,2.30
2022-10-18T17:58:35.342Z,2.10
2022-10-18T18:01:12.968Z,2.55
2022-10-18T18:03:40.671Z,2.42
2022-10-18T18:06:18.724Z,2.53
2022-10-18T18:08:46.070Z,1.92
2022-10-18T18:11:13.274Z,2.77
2022-10-18T18:13:39.936Z,1.88
2022-10-18T18:16:15.176Z,2.83
2022-10-18T18:18:42.380Z,2.30
2022-10-18T18:21:09.094Z,1.92
2022-10-18T18:23:35.548Z,1.87
2022-10-18T18:26:02.115Z,2.67
2022-10-18T18:28:28.818Z,3.05
2022-10-18T18:30:57.167Z,2.95
2022-10-18T18:33:23.781Z,2.20
2022-10-18T18:35:57.487Z,2.43
2022-10-18T18:38:24.793Z,2.70
2022-10-18T18:41:06.130Z,3.03
2022-10-18T18:43:32.973Z,2.20
2022-10-18T18:46:00.089Z,2.40
2022-10-18T18:48:28.098Z,2.40
2022-10-18T18:50:55.036Z,2.80
2022-10-18T18:53:21.540Z,2.35
2022-10-18T18:55:49.558Z,2.50
2022-10-18T18:58:16.634Z,2.28
2022-10-18T19:00:44.541Z,2.40
2022-10-18T19:03:11.908Z,2.53
2022-10-18T19:05:38.517Z,2.60
2022-10-18T19:08:05.925Z,2.40
2022-10-18T19:10:32.470Z,3.00
2022-10-18T19:12:59.092Z,2.97
2022-10-18T19:15:25.921Z,2.90
2022-10-18T19:17:52.524Z,2.10
2022-10-18T19:20:19.035Z,2.42
2022-10-18T19:22:46.012Z,2.60
2022-10-18T19:25:13.346Z,3.10
2022-10-18T19:27:39.868Z,2.22
2022-10-18T19:30:09.555Z,3.25
2022-10-18T19:32:36.112Z,2.30
2022-10-18T19:35:03.249Z,2.60
2022-10-18T19:37:29.764Z,2.97
2022-10-18T19:39:56.472Z,2.95
2022-10-18T19:42:27.505Z,2.88
2022-10-18T19:44:59.208Z,2.95
2022-10-18T19:47:25.707Z,3.25
2022-10-18T19:49:53.851Z,3.20
2022-10-18T19:52:20.340Z,3.35
2022-10-18T19:54:48.719Z,2.90
2022-10-18T19:57:15.355Z,2.97
2022-10-18T20:02:15.228Z,3.60
2022-10-18T20:04:41.774Z,3.38
2022-10-18T20:07:08.860Z,3.50
2022-10-18T20:09:35.495Z,3.22
2022-10-18T20:12:02.042Z,3.45
2022-10-18T20:14:28.514Z,3.20
2022-10-18T20:16:55.141Z,3.33
2022-10-18T20:19:21.677Z,3.95
2022-10-18T20:21:48.135Z,3.63
2022-10-18T20:24:14.722Z,3.60
2022-10-18T20:26:43.371Z,3.47
2022-10-18T20:29:09.923Z,3.45
2022-10-18T20:31:39.247Z,3.00
2022-10-18T20:34:11.784Z,3.05
2022-10-18T20:36:38.660Z,3.55
2022-10-18T20:39:06.155Z,3.33
2022-10-18T20:41:35.180Z,2.97
2022-10-18T20:44:04.387Z,3.30
2022-10-18T20:46:33.422Z,3.17
2022-10-18T20:49:00.396Z,3.55
2022-10-18T20:51:27.955Z,3.07
2022-10-18T20:53:54.669Z,3.22
2022-10-18T20:56:23.749Z,3.58
2022-10-18T20:58:51.831Z,3.00
2022-10-18T21:01:21.597Z,3.33
2022-10-18T21:03:49.748Z,3.20
2022-10-18T21:06:22.677Z,4.25
2022-10-18T21:09:11.976Z,2.92
2022-10-18T21:11:40.441Z,2.75
2022-10-18T21:14:07.969Z,3.65
2022-10-18T21:16:35.935Z,3.63
2022-10-18T21:19:07.374Z,3.22
2022-10-18T21:21:34.449Z,3.67
2022-10-18T21:24:03.912Z,3.58
2022-10-18T21:26:33.590Z,4.20
2022-10-18T21:29:00.497Z,3.63
2022-10-18T21:31:30.140Z,3.40
2022-10-18T21:33:59.761Z,4.25
2022-10-18T21:36:27.852Z,3.50
2022-10-18T21:38:54.445Z,3.97
2022-10-18T21:41:21.935Z,4.03
2022-10-18T21:43:51.249Z,3.92
2022-10-18T21:46:19.366Z,3.70
2022-10-18T21:48:50.133Z,3.95
2022-10-18T21:51:19.661Z,4.05
2022-10-18T21:53:48.374Z,4.23
2022-10-18T21:56:17.808Z,4.05
2022-10-18T21:58:44.972Z,3.80
2022-10-18T22:01:17.517Z,3.28
2022-10-18T22:03:45.330Z,3.55
2022-10-18T22:06:14.622Z,4.07
2022-10-18T22:08:48.760Z,4.15
2022-10-18T22:11:16.861Z,4.43
2022-10-18T22:13:43.890Z,3.90
2022-10-18T22:16:13.358Z,3.95
2022-10-18T22:18:40.320Z,3.63
2022-10-18T22:21:08.962Z,3.55
2022-10-18T22:23:39.395Z,3.80
2022-10-18T22:26:09.104Z,3.78
2022-10-18T22:28:36.070Z,4.22
2022-10-18T22:31:02.765Z,3.80
2022-10-18T22:33:29.705Z,3.70
2022-10-18T22:35:56.286Z,3.97
2022-10-18T22:38:23.110Z,3.63
2022-10-18T22:40:49.856Z,3.92
2022-10-18T22:43:16.285Z,4.37
2022-10-18T22:45:42.799Z,4.93
2022-10-18T22:48:09.275Z,4.95
2022-10-18T22:50:35.702Z,5.40
2022-10-18T22:53:02.207Z,6.10
2022-10-18T22:55:28.669Z,5.33
2022-10-18T22:57:56.461Z,6.30
2022-10-18T23:00:22.986Z,6.60
2022-10-18T23:02:49.917Z,5.75
2022-10-18T23:05:16.513Z,5.93
2022-10-18T23:07:47.688Z,5.50
2022-10-18T23:10:14.265Z,5.72
2022-10-18T23:12:40.753Z,6.18
2022-10-18T23:15:07.864Z,6.38
2022-10-18T23:17:34.573Z,6.20
2022-10-18T23:20:01.222Z,6.10
2022-10-18T23:22:27.747Z,5.47
2022-10-18T23:24:54.169Z,7.45
2022-10-18T23:27:20.607Z,6.82
2022-10-18T23:29:47.221Z,7.13
2022-10-18T23:32:13.818Z,6.47
2022-10-18T23:34:40.239Z,6.60
2022-10-18T23:37:06.710Z,6.50
2022-10-18T23:39:33.166Z,6.45
2022-10-18T23:41:59.629Z,7.15
2022-10-18T23:44:26.081Z,6.13
2022-10-18T23:46:52.507Z,6.28
2022-10-18T23:49:18.980Z,6.38
2022-10-18T23:51:45.536Z,7.88
2022-10-18T23:54:12.162Z,7.20
2022-10-18T23:56:38.618Z,7.80
2022-10-18T23:59:05.069Z,7.95
